JAL641 RJOO-RJFK
Flight info
| Callsign | JAL641 |
|---|---|
| Flight time | N/A |
| Altitude | 28000 |
| Route | TIGER MAIKO AWAJI Y232 KRE Y756 VIRUD Y757 SPICA |
| Aircraft | A359/H-SDE2E3GHIJ3J4J5LM1ORWXY/LB1D1 |
Departure
| Time | 2026-04-27 12:26 |
|---|---|
| Airport | Osaka Itami International Airport (RJOO) |
Arrival
| Time | N/A |
|---|---|
| Airport | Kagoshima Airport (RJFK) |
| Time | Latitude | Longitude | Altitude | Speed | Heading |
|---|---|---|---|---|---|
| 2026-04-27 11:59 | 34.78965 | 135.44090 | 48 ft | 0 kts | 68° |
| 2026-04-27 12:09 | 34.78971 | 135.44110 | 48 ft | 0 kts | 68° |
| 2026-04-27 12:11 | 34.78966 | 135.44093 | 56 ft | 2 kts | 68° |
| 2026-04-27 12:12 | 34.78960 | 135.44074 | 48 ft | 2 kts | 68° |
| 2026-04-27 12:12 | 34.78953 | 135.44056 | 48 ft | 2 kts | 68° |
| 2026-04-27 12:12 | 34.78947 | 135.44038 | 48 ft | 2 kts | 68° |
| 2026-04-27 12:12 | 34.78941 | 135.44019 | 51 ft | 2 kts | 68° |
| 2026-04-27 12:13 | 34.78935 | 135.44001 | 49 ft | 2 kts | 69° |
| 2026-04-27 12:13 | 34.78930 | 135.43982 | 48 ft | 2 kts | 72° |
| 2026-04-27 12:13 | 34.78926 | 135.43963 | 48 ft | 2 kts | 81° |
| 2026-04-27 12:13 | 34.78924 | 135.43943 | 48 ft | 2 kts | 86° |
| 2026-04-27 12:14 | 34.78924 | 135.43923 | 48 ft | 2 kts | 96° |
| 2026-04-27 12:14 | 34.78927 | 135.43904 | 48 ft | 2 kts | 121° |
| 2026-04-27 12:14 | 34.78937 | 135.43890 | 48 ft | 0 kts | 136° |
| 2026-04-27 12:17 | 34.78931 | 135.43896 | 48 ft | 6 kts | 142° |
| 2026-04-27 12:17 | 34.78878 | 135.43898 | 52 ft | 9 kts | 181° |
| 2026-04-27 12:17 | 34.78813 | 135.43920 | 48 ft | 9 kts | 151° |
| 2026-04-27 12:18 | 34.78757 | 135.43979 | 49 ft | 12 kts | 136° |
| 2026-04-27 12:18 | 34.78694 | 135.44055 | 52 ft | 14 kts | 135° |
| 2026-04-27 12:18 | 34.78617 | 135.44148 | 50 ft | 17 kts | 135° |
| 2026-04-27 12:18 | 34.78533 | 135.44252 | 50 ft | 17 kts | 134° |
| 2026-04-27 12:19 | 34.78483 | 135.44312 | 49 ft | 5 kts | 140° |
| 2026-04-27 12:19 | 34.78480 | 135.44315 | 53 ft | 0 kts | 143° |
| 2026-04-27 12:19 | 34.78473 | 135.44320 | 48 ft | 7 kts | 150° |
| 2026-04-27 12:19 | 34.78356 | 135.44333 | 51 ft | 22 kts | 182° |
| 2026-04-27 12:20 | 34.78196 | 135.44340 | 53 ft | 24 kts | 167° |
| 2026-04-27 12:20 | 34.78076 | 135.44458 | 51 ft | 23 kts | 135° |
| 2026-04-27 12:20 | 34.77958 | 135.44597 | 51 ft | 25 kts | 136° |
| 2026-04-27 12:20 | 34.77852 | 135.44724 | 51 ft | 19 kts | 134° |
| 2026-04-27 12:21 | 34.77756 | 135.44842 | 50 ft | 20 kts | 134° |
| 2026-04-27 12:21 | 34.77666 | 135.44929 | 50 ft | 15 kts | 155° |
| 2026-04-27 12:21 | 34.77572 | 135.44980 | 49 ft | 15 kts | 156° |
| 2026-04-27 12:21 | 34.77521 | 135.45007 | 51 ft | 0 kts | 158° |
| 2026-04-27 12:22 | 34.77513 | 135.45010 | 50 ft | 5 kts | 163° |
| 2026-04-27 12:23 | 34.77458 | 135.45001 | 53 ft | 10 kts | 207° |
| 2026-04-27 12:23 | 34.77430 | 135.44930 | 52 ft | 6 kts | 286° |
| 2026-04-27 12:23 | 34.77446 | 135.44907 | 58 ft | 0 kts | 315° |
| 2026-04-27 12:23 | 34.77449 | 135.44904 | 58 ft | 0 kts | 315° |
| 2026-04-27 12:25 | 34.77450 | 135.44903 | 58 ft | 0 kts | 315° |
| 2026-04-27 12:25 | 34.77567 | 135.44763 | 49 ft | 61 kts | 315° |
| 2026-04-27 12:25 | 34.78051 | 135.44180 | 51 ft | 132 kts | 315° |
| 2026-04-27 12:26 | 34.78840 | 135.43231 | 236 ft | 173 kts | 316° |
| 2026-04-27 12:26 | 34.79670 | 135.42192 | 1050 ft | 171 kts | 304° |
| 2026-04-27 12:26 | 34.80072 | 135.40854 | 1879 ft | 169 kts | 275° |
| 2026-04-27 12:26 | 34.79681 | 135.39456 | 2318 ft | 193 kts | 228° |
| 2026-04-27 12:27 | 34.78417 | 135.38704 | 2704 ft | 220 kts | 189° |
| 2026-04-27 12:27 | 34.76806 | 135.38510 | 3149 ft | 244 kts | 187° |
| 2026-04-27 12:27 | 34.75083 | 135.38252 | 3853 ft | 254 kts | 191° |
| 2026-04-27 12:27 | 34.73314 | 135.37877 | 4578 ft | 263 kts | 195° |
| 2026-04-27 12:28 | 34.71593 | 135.37087 | 5341 ft | 266 kts | 213° |
| 2026-04-27 12:28 | 34.70242 | 135.35585 | 6159 ft | 265 kts | 240° |
| 2026-04-27 12:28 | 34.69529 | 135.33536 | 7010 ft | 265 kts | 257° |
| 2026-04-27 12:28 | 34.69356 | 135.31313 | 7912 ft | 266 kts | 270° |
| 2026-04-27 12:29 | 34.69289 | 135.29054 | 8824 ft | 269 kts | 269° |
| 2026-04-27 12:29 | 34.69193 | 135.26764 | 9750 ft | 273 kts | 267° |
| 2026-04-27 12:29 | 34.68998 | 135.24465 | 10483 ft | 284 kts | 264° |
| 2026-04-27 12:29 | 34.68679 | 135.22007 | 10900 ft | 305 kts | 261° |
| 2026-04-27 12:30 | 34.68214 | 135.19409 | 11329 ft | 324 kts | 257° |
| 2026-04-27 12:30 | 34.67557 | 135.16748 | 12025 ft | 332 kts | 252° |
| 2026-04-27 12:30 | 34.66704 | 135.14125 | 12922 ft | 335 kts | 247° |
| 2026-04-27 12:30 | 34.65641 | 135.11598 | 13842 ft | 338 kts | 242° |
| 2026-04-27 12:31 | 34.64511 | 135.09093 | 14627 ft | 339 kts | 246° |
| 2026-04-27 12:31 | 34.63613 | 135.06442 | 15400 ft | 341 kts | 251° |
| 2026-04-27 12:31 | 34.62728 | 135.03761 | 16194 ft | 344 kts | 247° |
| 2026-04-27 12:31 | 34.61521 | 135.01229 | 16982 ft | 350 kts | 237° |
| 2026-04-27 12:32 | 34.59837 | 134.99059 | 17694 ft | 360 kts | 224° |
| 2026-04-27 12:32 | 34.57829 | 134.97202 | 18429 ft | 366 kts | 221° |
| 2026-04-27 12:32 | 34.55738 | 134.95407 | 19087 ft | 368 kts | 221° |
| 2026-04-27 12:32 | 34.53634 | 134.93624 | 19790 ft | 370 kts | 221° |
| 2026-04-27 12:33 | 34.51514 | 134.91835 | 20506 ft | 372 kts | 221° |
| 2026-04-27 12:33 | 34.49381 | 134.90038 | 21222 ft | 375 kts | 222° |
| 2026-04-27 12:33 | 34.47231 | 134.88230 | 21942 ft | 377 kts | 222° |
| 2026-04-27 12:33 | 34.45069 | 134.86409 | 22654 ft | 380 kts | 223° |
| 2026-04-27 12:34 | 34.42895 | 134.84581 | 23357 ft | 383 kts | 223° |
| 2026-04-27 12:34 | 34.40697 | 134.82737 | 23938 ft | 385 kts | 223° |
| 2026-04-27 12:34 | 34.38492 | 134.80889 | 24520 ft | 387 kts | 224° |
| 2026-04-27 12:34 | 34.36266 | 134.79024 | 25109 ft | 389 kts | 224° |
| 2026-04-27 12:35 | 34.34034 | 134.77154 | 25687 ft | 391 kts | 224° |
| 2026-04-27 12:35 | 34.31789 | 134.75276 | 26275 ft | 393 kts | 224° |
| 2026-04-27 12:35 | 34.29527 | 134.73384 | 26843 ft | 395 kts | 224° |
| 2026-04-27 12:35 | 34.27377 | 134.71406 | 27329 ft | 391 kts | 230° |
| 2026-04-27 12:36 | 34.25462 | 134.69102 | 27778 ft | 388 kts | 235° |
| 2026-04-27 12:36 | 34.23660 | 134.66667 | 27957 ft | 387 kts | 237° |
| 2026-04-27 12:36 | 34.21925 | 134.64188 | 27968 ft | 386 kts | 238° |
| 2026-04-27 12:36 | 34.20218 | 134.61683 | 27968 ft | 386 kts | 238° |
| 2026-04-27 12:37 | 34.18510 | 134.59156 | 27496 ft | 390 kts | 238° |
| 2026-04-27 12:37 | 34.16791 | 134.56637 | 27227 ft | 387 kts | 238° |
| 2026-04-27 12:37 | 34.15066 | 134.54143 | 27357 ft | 388 kts | 237° |
| 2026-04-27 12:37 | 34.13330 | 134.51647 | 27597 ft | 389 kts | 237° |
| 2026-04-27 12:38 | 34.11585 | 134.49146 | 27863 ft | 389 kts | 237° |
| 2026-04-27 12:38 | 34.09844 | 134.46659 | 27968 ft | 389 kts | 237° |
| 2026-04-27 12:38 | 34.08092 | 134.44160 | 27972 ft | 389 kts | 237° |
| 2026-04-27 12:38 | 34.06347 | 134.41672 | 27958 ft | 389 kts | 237° |
| 2026-04-27 12:39 | 34.04600 | 134.39179 | 27973 ft | 389 kts | 237° |
| 2026-04-27 12:39 | 34.02851 | 134.36683 | 27975 ft | 390 kts | 237° |
| 2026-04-27 12:39 | 34.01101 | 134.34191 | 27992 ft | 389 kts | 237° |
| 2026-04-27 12:39 | 33.99347 | 134.31699 | 27984 ft | 389 kts | 237° |
| 2026-04-27 12:40 | 33.97593 | 134.29216 | 27991 ft | 390 kts | 237° |
| 2026-04-27 12:40 | 33.95836 | 134.26726 | 27989 ft | 390 kts | 237° |
| 2026-04-27 12:40 | 33.94104 | 134.24272 | 28093 ft | 389 kts | 237° |
| 2026-04-27 12:40 | 33.92359 | 134.21791 | 27988 ft | 390 kts | 238° |
| 2026-04-27 12:41 | 33.90619 | 134.19291 | 27990 ft | 390 kts | 237° |
| 2026-04-27 12:41 | 33.88864 | 134.16796 | 28139 ft | 390 kts | 237° |
| 2026-04-27 12:41 | 33.87104 | 134.14303 | 27962 ft | 392 kts | 237° |
| 2026-04-27 12:41 | 33.85330 | 134.11802 | 27984 ft | 393 kts | 237° |
| 2026-04-27 12:42 | 33.83556 | 134.09310 | 28014 ft | 390 kts | 237° |
| 2026-04-27 12:42 | 33.80011 | 134.04364 | 28065 ft | 390 kts | 237° |
| 2026-04-27 12:43 | 33.76485 | 133.99392 | 27995 ft | 391 kts | 237° |
| 2026-04-27 12:43 | 33.74730 | 133.96897 | 27925 ft | 393 kts | 237° |
| 2026-04-27 12:43 | 33.72969 | 133.94387 | 27964 ft | 392 kts | 238° |
| 2026-04-27 12:43 | 33.71198 | 133.91893 | 27972 ft | 392 kts | 237° |
| 2026-04-27 12:44 | 33.69428 | 133.89416 | 28049 ft | 390 kts | 237° |
| 2026-04-27 12:44 | 33.67658 | 133.86939 | 27981 ft | 391 kts | 237° |
| 2026-04-27 12:44 | 33.65900 | 133.84463 | 27972 ft | 391 kts | 237° |
| 2026-04-27 12:44 | 33.64135 | 133.81971 | 27984 ft | 391 kts | 237° |
| 2026-04-27 12:45 | 33.62369 | 133.79481 | 27966 ft | 391 kts | 237° |
| 2026-04-27 12:45 | 33.60603 | 133.77005 | 27989 ft | 391 kts | 236° |
| 2026-04-27 12:45 | 33.58818 | 133.74523 | 27952 ft | 393 kts | 237° |
| 2026-04-27 12:45 | 33.57063 | 133.72073 | 27966 ft | 392 kts | 237° |
| 2026-04-27 12:46 | 33.55304 | 133.69579 | 27972 ft | 390 kts | 238° |
| 2026-04-27 12:46 | 33.53772 | 133.66937 | 27969 ft | 384 kts | 245° |
| 2026-04-27 12:46 | 33.52410 | 133.64177 | 27964 ft | 383 kts | 246° |
| 2026-04-27 12:46 | 33.51083 | 133.61404 | 27976 ft | 384 kts | 245° |
| 2026-04-27 12:47 | 33.49564 | 133.58758 | 27968 ft | 389 kts | 239° |
| 2026-04-27 12:47 | 33.47823 | 133.56261 | 27950 ft | 392 kts | 236° |
| 2026-04-27 12:47 | 33.46002 | 133.53854 | 27974 ft | 394 kts | 234° |
| 2026-04-27 12:47 | 33.44106 | 133.51456 | 27958 ft | 394 kts | 233° |
| 2026-04-27 12:48 | 33.42193 | 133.49080 | 27961 ft | 395 kts | 233° |
| 2026-04-27 12:48 | 33.40285 | 133.46717 | 27975 ft | 395 kts | 233° |
| 2026-04-27 12:48 | 33.38382 | 133.44353 | 27975 ft | 394 kts | 233° |
| 2026-04-27 12:48 | 33.36486 | 133.41986 | 27934 ft | 394 kts | 234° |
| 2026-04-27 12:49 | 33.34593 | 133.39611 | 27973 ft | 395 kts | 233° |
| 2026-04-27 12:49 | 33.32701 | 133.37232 | 27972 ft | 395 kts | 233° |
| 2026-04-27 12:49 | 33.30805 | 133.34848 | 27974 ft | 396 kts | 233° |
| 2026-04-27 12:49 | 33.28904 | 133.32458 | 27974 ft | 396 kts | 233° |
| 2026-04-27 12:50 | 33.27010 | 133.30078 | 27972 ft | 396 kts | 233° |
| 2026-04-27 12:50 | 33.25109 | 133.27693 | 27971 ft | 396 kts | 233° |
| 2026-04-27 12:50 | 33.23221 | 133.25324 | 27962 ft | 396 kts | 233° |
| 2026-04-27 12:50 | 33.21335 | 133.22959 | 27966 ft | 397 kts | 233° |
| 2026-04-27 12:51 | 33.19403 | 133.20539 | 27980 ft | 397 kts | 233° |
| 2026-04-27 12:51 | 33.17521 | 133.18189 | 27973 ft | 395 kts | 233° |
| 2026-04-27 12:51 | 33.15621 | 133.15834 | 28156 ft | 391 kts | 233° |
| 2026-04-27 12:51 | 33.13700 | 133.13548 | 28307 ft | 390 kts | 231° |
| 2026-04-27 12:52 | 33.11706 | 133.11331 | 28225 ft | 395 kts | 230° |
| 2026-04-27 12:52 | 33.09627 | 133.09132 | 27855 ft | 404 kts | 229° |
| 2026-04-27 12:52 | 33.07518 | 133.06849 | 27319 ft | 416 kts | 230° |
| 2026-04-27 12:52 | 33.05366 | 133.04477 | 26746 ft | 429 kts | 228° |